JAL161 KSFO-RJAA
Flight info
| Callsign | JAL161 |
|---|---|
| Flight time | N/A |
| Altitude | 38000 |
| Route | GNNRR3 AMAKR REDWD UNVER 42N130W 47N140W 49N150W 50N160W 50N170W 49N180E 45N170E 41N160E EMRON OTR7 ADNAP Y807 NOGIX Y802 OLDIV Y809 SUPOK SUPOKT |
| Aircraft | B788/M-V/N |
Departure
| Time | 2026-05-08 04:49 |
|---|---|
| Airport | San Francisco International Airport (KSFO) |
Arrival
| Time | N/A |
|---|---|
| Airport | Narita International Airport (RJAA) |
| Time | Latitude | Longitude | Altitude | Speed | Heading |
|---|---|---|---|---|---|
| 2026-05-08 04:21 | 37.61777 | -122.39163 | 30 ft | 0 kts | 26° |
| 2026-05-08 04:33 | 37.61767 | -122.39169 | 30 ft | 2 kts | 26° |
| 2026-05-08 04:33 | 37.61753 | -122.39178 | 30 ft | 3 kts | 26° |
| 2026-05-08 04:33 | 37.61735 | -122.39188 | 30 ft | 3 kts | 22° |
| 2026-05-08 04:33 | 37.61716 | -122.39196 | 30 ft | 3 kts | 14° |
| 2026-05-08 04:34 | 37.61696 | -122.39201 | 30 ft | 3 kts | 6° |
| 2026-05-08 04:34 | 37.61695 | -122.39201 | 30 ft | 0 kts | 6° |
| 2026-05-08 04:34 | 37.61698 | -122.39201 | 30 ft | 1 kts | 2° |
| 2026-05-08 04:35 | 37.61705 | -122.39202 | 30 ft | 2 kts | 349° |
| 2026-05-08 04:35 | 37.61719 | -122.39219 | 30 ft | 5 kts | 303° |
| 2026-05-08 04:35 | 37.61741 | -122.39266 | 30 ft | 5 kts | 300° |
| 2026-05-08 04:35 | 37.61759 | -122.39310 | 30 ft | 7 kts | 291° |
| 2026-05-08 04:36 | 37.61770 | -122.39362 | 30 ft | 4 kts | 282° |
| 2026-05-08 04:36 | 37.61774 | -122.39386 | 30 ft | 2 kts | 282° |
| 2026-05-08 04:36 | 37.61780 | -122.39418 | 30 ft | 5 kts | 285° |
| 2026-05-08 04:36 | 37.61794 | -122.39471 | 30 ft | 8 kts | 296° |
| 2026-05-08 04:37 | 37.61821 | -122.39535 | 30 ft | 8 kts | 308° |
| 2026-05-08 04:37 | 37.61873 | -122.39560 | 30 ft | 8 kts | 353° |
| 2026-05-08 04:37 | 37.61922 | -122.39537 | 30 ft | 8 kts | 33° |
| 2026-05-08 04:37 | 37.61961 | -122.39477 | 30 ft | 10 kts | 63° |
| 2026-05-08 04:38 | 37.61982 | -122.39386 | 30 ft | 12 kts | 75° |
| 2026-05-08 04:38 | 37.62009 | -122.39287 | 30 ft | 12 kts | 56° |
| 2026-05-08 04:38 | 37.62076 | -122.39231 | 30 ft | 12 kts | 27° |
| 2026-05-08 04:38 | 37.62149 | -122.39179 | 30 ft | 12 kts | 30° |
| 2026-05-08 04:39 | 37.62223 | -122.39124 | 30 ft | 13 kts | 30° |
| 2026-05-08 04:39 | 37.62289 | -122.39059 | 30 ft | 11 kts | 51° |
| 2026-05-08 04:39 | 37.62314 | -122.38981 | 30 ft | 8 kts | 83° |
| 2026-05-08 04:39 | 37.62301 | -122.38936 | 30 ft | 4 kts | 124° |
| 2026-05-08 04:40 | 37.62288 | -122.38913 | 30 ft | 3 kts | 125° |
| 2026-05-08 04:40 | 37.62276 | -122.38890 | 30 ft | 4 kts | 124° |
| 2026-05-08 04:40 | 37.62258 | -122.38856 | 30 ft | 7 kts | 122° |
| 2026-05-08 04:40 | 37.62228 | -122.38783 | 30 ft | 12 kts | 116° |
| 2026-05-08 04:41 | 37.62179 | -122.38662 | 30 ft | 18 kts | 117° |
| 2026-05-08 04:41 | 37.62111 | -122.38499 | 30 ft | 24 kts | 118° |
| 2026-05-08 04:41 | 37.62025 | -122.38297 | 30 ft | 27 kts | 118° |
| 2026-05-08 04:41 | 37.61933 | -122.38078 | 30 ft | 29 kts | 118° |
| 2026-05-08 04:42 | 37.61841 | -122.37854 | 30 ft | 28 kts | 117° |
| 2026-05-08 04:42 | 37.61767 | -122.37641 | 30 ft | 25 kts | 105° |
| 2026-05-08 04:42 | 37.61706 | -122.37448 | 30 ft | 22 kts | 119° |
| 2026-05-08 04:42 | 37.61642 | -122.37296 | 30 ft | 19 kts | 117° |
| 2026-05-08 04:43 | 37.61586 | -122.37156 | 30 ft | 17 kts | 116° |
| 2026-05-08 04:43 | 37.61536 | -122.37028 | 30 ft | 16 kts | 116° |
| 2026-05-08 04:43 | 37.61476 | -122.36925 | 30 ft | 14 kts | 134° |
| 2026-05-08 04:43 | 37.61412 | -122.36841 | 30 ft | 12 kts | 133° |
| 2026-05-08 04:44 | 37.61368 | -122.36756 | 30 ft | 11 kts | 119° |
| 2026-05-08 04:44 | 37.61334 | -122.36675 | 30 ft | 10 kts | 117° |
| 2026-05-08 04:44 | 37.61297 | -122.36582 | 30 ft | 13 kts | 117° |
| 2026-05-08 04:44 | 37.61250 | -122.36469 | 30 ft | 16 kts | 117° |
| 2026-05-08 04:45 | 37.61195 | -122.36336 | 30 ft | 18 kts | 117° |
| 2026-05-08 04:45 | 37.61132 | -122.36185 | 30 ft | 20 kts | 117° |
| 2026-05-08 04:45 | 37.61093 | -122.36055 | 30 ft | 11 kts | 88° |
| 2026-05-08 04:45 | 37.61103 | -122.36013 | 30 ft | 0 kts | 61° |
| 2026-05-08 04:46 | 37.61117 | -122.35987 | 30 ft | 6 kts | 51° |
| 2026-05-08 04:46 | 37.61153 | -122.35956 | 30 ft | 6 kts | 27° |
| 2026-05-08 04:47 | 37.61195 | -122.35930 | 30 ft | 7 kts | 25° |
| 2026-05-08 04:47 | 37.61223 | -122.35946 | 30 ft | 1 kts | 301° |
| 2026-05-08 04:47 | 37.61225 | -122.35951 | 30 ft | 0 kts | 298° |
| 2026-05-08 04:48 | 37.61227 | -122.35957 | 30 ft | 9 kts | 297° |
| 2026-05-08 04:48 | 37.61366 | -122.36287 | 30 ft | 78 kts | 298° |
| 2026-05-08 04:48 | 37.61736 | -122.37171 | 30 ft | 150 kts | 298° |
| 2026-05-08 04:49 | 37.62336 | -122.38599 | 45 ft | 220 kts | 298° |
| 2026-05-08 04:49 | 37.63150 | -122.40535 | 402 ft | 274 kts | 298° |
| 2026-05-08 04:49 | 37.64099 | -122.42806 | 1617 ft | 301 kts | 297° |
| 2026-05-08 04:49 | 37.65000 | -122.45025 | 2584 ft | 269 kts | 297° |
| 2026-05-08 04:50 | 37.65940 | -122.47142 | 3049 ft | 296 kts | 300° |
| 2026-05-08 04:50 | 37.67178 | -122.49402 | 3595 ft | 327 kts | 307° |
| 2026-05-08 04:50 | 37.68661 | -122.51673 | 4420 ft | 345 kts | 309° |
| 2026-05-08 04:50 | 37.70181 | -122.54110 | 5787 ft | 357 kts | 308° |
| 2026-05-08 04:51 | 37.71735 | -122.56611 | 6916 ft | 364 kts | 306° |
| 2026-05-08 04:51 | 37.73197 | -122.59127 | 7478 ft | 348 kts | 304° |
| 2026-05-08 04:51 | 37.74581 | -122.61639 | 8226 ft | 353 kts | 303° |
| 2026-05-08 04:51 | 37.75979 | -122.64229 | 8968 ft | 357 kts | 302° |
| 2026-05-08 04:52 | 37.77374 | -122.66811 | 9718 ft | 354 kts | 302° |
| 2026-05-08 04:52 | 37.78794 | -122.69412 | 10478 ft | 360 kts | 303° |
| 2026-05-08 04:52 | 37.80250 | -122.71987 | 11222 ft | 362 kts | 305° |
| 2026-05-08 04:52 | 37.81956 | -122.74350 | 11975 ft | 368 kts | 312° |
| 2026-05-08 04:53 | 37.83888 | -122.76531 | 12736 ft | 374 kts | 317° |
| 2026-05-08 04:53 | 37.85951 | -122.78576 | 13493 ft | 378 kts | 320° |
| 2026-05-08 04:53 | 37.88096 | -122.80532 | 14248 ft | 382 kts | 322° |
| 2026-05-08 04:53 | 37.90253 | -122.82404 | 14986 ft | 386 kts | 323° |
| 2026-05-08 04:54 | 37.92523 | -122.84317 | 15747 ft | 390 kts | 323° |
| 2026-05-08 04:54 | 37.94810 | -122.86212 | 16502 ft | 394 kts | 324° |
| 2026-05-08 04:54 | 37.97121 | -122.88113 | 17254 ft | 398 kts | 324° |
| 2026-05-08 04:54 | 37.99460 | -122.90032 | 17991 ft | 403 kts | 324° |
| 2026-05-08 04:55 | 38.01846 | -122.91990 | 18641 ft | 409 kts | 324° |
| 2026-05-08 04:55 | 38.04214 | -122.93937 | 19263 ft | 412 kts | 324° |
| 2026-05-08 04:55 | 38.06633 | -122.95930 | 19892 ft | 415 kts | 324° |
| 2026-05-08 04:55 | 38.09074 | -122.97947 | 20522 ft | 419 kts | 324° |
| 2026-05-08 04:56 | 38.11535 | -122.99985 | 21151 ft | 423 kts | 324° |
| 2026-05-08 04:56 | 38.14009 | -123.02040 | 21778 ft | 427 kts | 324° |
| 2026-05-08 04:56 | 38.16481 | -123.04098 | 22399 ft | 431 kts | 324° |
| 2026-05-08 04:56 | 38.19002 | -123.06200 | 23026 ft | 435 kts | 324° |
| 2026-05-08 04:57 | 38.21547 | -123.08327 | 23637 ft | 440 kts | 324° |
| 2026-05-08 04:57 | 38.24136 | -123.10494 | 24172 ft | 445 kts | 324° |
| 2026-05-08 04:57 | 38.26704 | -123.12647 | 24674 ft | 448 kts | 324° |
| 2026-05-08 04:57 | 38.29321 | -123.14843 | 25178 ft | 451 kts | 324° |
| 2026-05-08 04:58 | 38.31945 | -123.17048 | 25678 ft | 455 kts | 324° |
| 2026-05-08 04:58 | 38.34611 | -123.19290 | 26183 ft | 459 kts | 324° |
| 2026-05-08 04:58 | 38.37286 | -123.21542 | 26685 ft | 462 kts | 324° |
| 2026-05-08 04:58 | 38.39974 | -123.23808 | 27186 ft | 465 kts | 324° |
| 2026-05-08 04:59 | 38.42688 | -123.26098 | 27688 ft | 469 kts | 324° |
| 2026-05-08 04:59 | 38.45395 | -123.28384 | 28186 ft | 472 kts | 324° |
| 2026-05-08 04:59 | 38.48169 | -123.30730 | 28692 ft | 476 kts | 324° |
| 2026-05-08 04:59 | 38.50942 | -123.33077 | 29158 ft | 480 kts | 324° |
| 2026-05-08 05:00 | 38.53720 | -123.35431 | 29552 ft | 484 kts | 324° |
| 2026-05-08 05:00 | 38.56537 | -123.37820 | 29932 ft | 486 kts | 324° |
| 2026-05-08 05:00 | 38.59352 | -123.40209 | 30307 ft | 488 kts | 324° |
| 2026-05-08 05:00 | 38.62200 | -123.42628 | 30685 ft | 490 kts | 324° |
| 2026-05-08 05:01 | 38.65051 | -123.45053 | 31061 ft | 493 kts | 324° |
| 2026-05-08 05:01 | 38.67929 | -123.47503 | 31439 ft | 496 kts | 324° |
| 2026-05-08 05:01 | 38.70814 | -123.49962 | 31816 ft | 498 kts | 324° |
| 2026-05-08 05:01 | 38.73691 | -123.52417 | 32190 ft | 501 kts | 324° |
| 2026-05-08 05:02 | 38.76597 | -123.54898 | 32566 ft | 503 kts | 324° |
| 2026-05-08 05:02 | 38.79550 | -123.57423 | 32945 ft | 506 kts | 324° |
| 2026-05-08 05:02 | 38.82466 | -123.59919 | 33319 ft | 509 kts | 324° |
| 2026-05-08 05:02 | 38.84422 | -123.61594 | 33568 ft | 511 kts | 324° |
| 2026-05-08 05:03 | 38.88383 | -123.64992 | 34070 ft | 514 kts | 324° |
| 2026-05-08 05:03 | 38.90389 | -123.66715 | 34324 ft | 515 kts | 324° |
| 2026-05-08 05:03 | 38.93364 | -123.69272 | 34699 ft | 513 kts | 324° |
| 2026-05-08 05:03 | 38.96297 | -123.71795 | 35070 ft | 509 kts | 324° |
| 2026-05-08 05:04 | 38.99058 | -123.74593 | 35435 ft | 503 kts | 315° |
| 2026-05-08 05:04 | 39.02059 | -123.79151 | 35944 ft | 501 kts | 304° |
| 2026-05-08 05:04 | 39.03366 | -123.81666 | 36202 ft | 500 kts | 301° |
| 2026-05-08 05:04 | 39.05111 | -123.85505 | 36580 ft | 499 kts | 297° |
| 2026-05-08 05:05 | 39.06708 | -123.89439 | 36957 ft | 492 kts | 295° |
| 2026-05-08 05:05 | 39.08192 | -123.93375 | 37333 ft | 485 kts | 294° |
| 2026-05-08 05:05 | 39.09605 | -123.97305 | 37707 ft | 483 kts | 293° |
| 2026-05-08 05:05 | 39.11000 | -124.01279 | 37871 ft | 487 kts | 293° |
| 2026-05-08 05:06 | 39.13783 | -124.09299 | 37996 ft | 492 kts | 293° |
| 2026-05-08 05:06 | 39.16578 | -124.17300 | 38000 ft | 490 kts | 293° |
| 2026-05-08 05:07 | 39.19400 | -124.25268 | 38000 ft | 487 kts | 293° |
| 2026-05-08 05:07 | 39.22236 | -124.33176 | 38000 ft | 486 kts | 294° |
| 2026-05-08 05:08 | 39.25113 | -124.41122 | 38000 ft | 485 kts | 294° |
| 2026-05-08 05:08 | 39.27978 | -124.48981 | 38000 ft | 485 kts | 294° |
| 2026-05-08 05:09 | 39.30853 | -124.56839 | 38000 ft | 485 kts | 294° |
| 2026-05-08 05:09 | 39.33748 | -124.64734 | 38000 ft | 485 kts | 294° |
| 2026-05-08 05:10 | 39.38070 | -124.76519 | 38000 ft | 484 kts | 294° |
| 2026-05-08 05:11 | 39.40962 | -124.84411 | 38000 ft | 484 kts | 294° |
| 2026-05-08 05:11 | 39.43843 | -124.92288 | 38000 ft | 484 kts | 294° |
| 2026-05-08 05:12 | 39.46717 | -125.00159 | 38000 ft | 484 kts | 294° |
| 2026-05-08 05:12 | 39.49600 | -125.08073 | 38000 ft | 484 kts | 294° |
| 2026-05-08 05:13 | 39.52462 | -125.15948 | 38000 ft | 484 kts | 294° |
| 2026-05-08 05:13 | 39.55326 | -125.23847 | 38000 ft | 484 kts | 294° |
| 2026-05-08 05:14 | 39.58197 | -125.31788 | 38000 ft | 484 kts | 294° |
| 2026-05-08 05:14 | 39.61032 | -125.39651 | 38000 ft | 484 kts | 294° |
| 2026-05-08 05:15 | 39.63886 | -125.47585 | 38000 ft | 484 kts | 294° |
| 2026-05-08 05:15 | 39.66736 | -125.55531 | 38000 ft | 484 kts | 294° |
| 2026-05-08 05:16 | 39.69563 | -125.63433 | 38000 ft | 484 kts | 294° |
| 2026-05-08 05:16 | 39.72407 | -125.71408 | 38000 ft | 484 kts | 294° |
| 2026-05-08 05:17 | 39.75226 | -125.79331 | 38000 ft | 484 kts | 294° |
| 2026-05-08 05:17 | 39.78041 | -125.87267 | 38000 ft | 484 kts | 293° |
| 2026-05-08 05:18 | 39.80866 | -125.95253 | 38000 ft | 484 kts | 293° |
| 2026-05-08 05:18 | 39.83667 | -126.03192 | 38000 ft | 484 kts | 293° |
| 2026-05-08 05:19 | 39.86464 | -126.11145 | 38000 ft | 484 kts | 293° |
| 2026-05-08 05:19 | 39.89278 | -126.19166 | 38000 ft | 484 kts | 293° |
| 2026-05-08 05:20 | 39.92061 | -126.27126 | 38000 ft | 484 kts | 293° |
| 2026-05-08 05:20 | 39.94857 | -126.35145 | 38000 ft | 484 kts | 293° |
| 2026-05-08 05:21 | 39.97631 | -126.43131 | 38000 ft | 484 kts | 293° |
| 2026-05-08 05:21 | 40.00748 | -126.50938 | 38000 ft | 486 kts | 300° |
| 2026-05-08 05:22 | 40.04563 | -126.58206 | 38001 ft | 487 kts | 304° |
| 2026-05-08 05:22 | 40.08688 | -126.65193 | 38000 ft | 487 kts | 307° |
| 2026-05-08 05:23 | 40.12940 | -126.72098 | 38000 ft | 487 kts | 307° |
| 2026-05-08 05:23 | 40.17207 | -126.78983 | 38000 ft | 487 kts | 307° |
| 2026-05-08 05:24 | 40.21473 | -126.85928 | 38000 ft | 487 kts | 307° |
| 2026-05-08 05:24 | 40.25660 | -126.92843 | 38000 ft | 487 kts | 306° |
| 2026-05-08 05:25 | 40.29841 | -126.99843 | 38000 ft | 487 kts | 306° |
| 2026-05-08 05:25 | 40.34016 | -127.06862 | 38000 ft | 487 kts | 306° |
| 2026-05-08 05:26 | 40.38165 | -127.13854 | 38000 ft | 487 kts | 306° |
| 2026-05-08 05:26 | 40.42315 | -127.20867 | 38000 ft | 487 kts | 306° |
| 2026-05-08 05:27 | 40.46476 | -127.27915 | 38000 ft | 487 kts | 306° |
| 2026-05-08 05:27 | 40.50633 | -127.34972 | 38000 ft | 487 kts | 306° |
| 2026-05-08 05:28 | 40.54774 | -127.42018 | 38000 ft | 487 kts | 306° |
| 2026-05-08 05:28 | 40.58912 | -127.49075 | 38000 ft | 487 kts | 306° |
| 2026-05-08 05:29 | 40.63040 | -127.56130 | 38000 ft | 487 kts | 306° |
| 2026-05-08 05:29 | 40.67163 | -127.63194 | 38000 ft | 487 kts | 306° |
| 2026-05-08 05:30 | 40.71280 | -127.70263 | 38000 ft | 487 kts | 306° |
| 2026-05-08 05:30 | 40.75423 | -127.77393 | 38000 ft | 487 kts | 306° |
| 2026-05-08 05:31 | 40.79518 | -127.84457 | 38000 ft | 487 kts | 306° |
| 2026-05-08 05:31 | 40.83652 | -127.91605 | 38000 ft | 487 kts | 306° |
| 2026-05-08 05:32 | 40.87763 | -127.98730 | 38000 ft | 487 kts | 306° |
| 2026-05-08 05:32 | 40.91849 | -128.05827 | 38000 ft | 487 kts | 306° |
| 2026-05-08 05:33 | 40.95958 | -128.12980 | 38000 ft | 487 kts | 305° |
| 2026-05-08 05:33 | 41.00051 | -128.20123 | 38000 ft | 487 kts | 305° |
| 2026-05-08 05:34 | 41.04137 | -128.27270 | 38000 ft | 487 kts | 305° |
| 2026-05-08 05:34 | 41.08216 | -128.34421 | 38000 ft | 487 kts | 305° |
| 2026-05-08 05:35 | 41.11628 | -128.40417 | 38000 ft | 487 kts | 305° |
| 2026-05-08 05:35 | 41.15693 | -128.47574 | 38000 ft | 487 kts | 305° |
| 2026-05-08 05:36 | 41.19765 | -128.54759 | 38000 ft | 487 kts | 305° |
| 2026-05-08 05:36 | 41.23851 | -128.61988 | 38000 ft | 487 kts | 305° |
| 2026-05-08 05:37 | 41.27909 | -128.69184 | 38000 ft | 487 kts | 305° |
| 2026-05-08 05:37 | 41.31942 | -128.76351 | 38000 ft | 487 kts | 305° |
| 2026-05-08 05:38 | 41.36007 | -128.83593 | 38000 ft | 487 kts | 305° |
| 2026-05-08 05:38 | 41.40059 | -128.90829 | 38000 ft | 487 kts | 305° |
| 2026-05-08 05:39 | 41.44106 | -128.98075 | 38000 ft | 487 kts | 305° |
| 2026-05-08 05:39 | 41.48125 | -129.05286 | 38000 ft | 487 kts | 305° |
| 2026-05-08 05:40 | 41.52168 | -129.12557 | 38000 ft | 487 kts | 305° |
| 2026-05-08 05:40 | 41.56188 | -129.19806 | 38000 ft | 486 kts | 304° |
| 2026-05-08 05:41 | 41.60225 | -129.27102 | 38000 ft | 486 kts | 304° |
| 2026-05-08 05:41 | 41.64227 | -129.34350 | 38000 ft | 486 kts | 304° |
| 2026-05-08 05:42 | 41.68260 | -129.41675 | 38000 ft | 486 kts | 304° |
| 2026-05-08 05:42 | 41.72254 | -129.48947 | 38000 ft | 486 kts | 304° |
| 2026-05-08 05:43 | 41.76250 | -129.56239 | 38000 ft | 486 kts | 304° |
| 2026-05-08 05:43 | 41.80252 | -129.63560 | 38000 ft | 486 kts | 304° |
| 2026-05-08 05:44 | 41.84250 | -129.70893 | 38000 ft | 486 kts | 304° |
| 2026-05-08 05:44 | 41.88249 | -129.78246 | 38000 ft | 486 kts | 304° |
| 2026-05-08 05:45 | 41.92240 | -129.85606 | 38000 ft | 486 kts | 304° |
| 2026-05-08 05:45 | 41.96204 | -129.92937 | 38000 ft | 486 kts | 304° |
| 2026-05-08 05:46 | 42.00244 | -130.00285 | 38000 ft | 487 kts | 305° |
| 2026-05-08 05:46 | 42.04389 | -130.07490 | 38000 ft | 487 kts | 306° |
| 2026-05-08 05:47 | 42.08563 | -130.14618 | 38000 ft | 487 kts | 307° |
| 2026-05-08 05:47 | 42.12782 | -130.21790 | 38000 ft | 487 kts | 307° |
| 2026-05-08 05:48 | 42.17001 | -130.28964 | 38000 ft | 487 kts | 307° |
| 2026-05-08 05:48 | 42.21196 | -130.36116 | 38000 ft | 487 kts | 306° |
| 2026-05-08 05:49 | 42.25399 | -130.43303 | 38000 ft | 487 kts | 306° |
| 2026-05-08 05:49 | 42.29600 | -130.50512 | 38000 ft | 487 kts | 306° |
| 2026-05-08 05:50 | 42.33771 | -130.57689 | 38000 ft | 487 kts | 306° |
| 2026-05-08 05:50 | 42.37950 | -130.64903 | 38000 ft | 487 kts | 306° |
| 2026-05-08 05:51 | 42.42113 | -130.72109 | 38000 ft | 487 kts | 306° |
| 2026-05-08 05:51 | 42.46299 | -130.79376 | 38000 ft | 487 kts | 306° |
| 2026-05-08 05:52 | 42.50462 | -130.86620 | 38000 ft | 487 kts | 306° |
| 2026-05-08 05:52 | 42.54602 | -130.93845 | 38000 ft | 487 kts | 306° |
| 2026-05-08 05:53 | 42.58770 | -131.01136 | 38000 ft | 487 kts | 306° |
| 2026-05-08 05:53 | 42.62927 | -131.08426 | 38000 ft | 487 kts | 306° |
| 2026-05-08 05:54 | 42.67043 | -131.15662 | 38000 ft | 487 kts | 306° |
| 2026-05-08 05:54 | 42.71194 | -131.22979 | 38000 ft | 487 kts | 306° |
| 2026-05-08 05:55 | 42.75317 | -131.30263 | 38000 ft | 487 kts | 306° |
| 2026-05-08 05:55 | 42.79458 | -131.37598 | 38000 ft | 487 kts | 306° |
| 2026-05-08 05:56 | 42.83567 | -131.44894 | 38000 ft | 487 kts | 306° |
| 2026-05-08 05:56 | 42.87694 | -131.52242 | 38000 ft | 487 kts | 306° |
| 2026-05-08 05:57 | 42.91808 | -131.59583 | 38000 ft | 486 kts | 306° |
| 2026-05-08 05:57 | 42.95891 | -131.66886 | 38000 ft | 486 kts | 306° |
| 2026-05-08 05:58 | 42.99993 | -131.74242 | 38000 ft | 486 kts | 306° |
| 2026-05-08 05:58 | 43.04091 | -131.81609 | 38000 ft | 486 kts | 305° |
| 2026-05-08 05:59 | 43.08189 | -131.88996 | 38000 ft | 486 kts | 305° |
| 2026-05-08 05:59 | 43.12288 | -131.96402 | 38000 ft | 486 kts | 305° |
| 2026-05-08 06:00 | 43.16355 | -132.03769 | 38000 ft | 486 kts | 305° |
| 2026-05-08 06:00 | 43.20436 | -132.11178 | 38000 ft | 486 kts | 305° |
| 2026-05-08 06:01 | 43.24524 | -132.18621 | 38000 ft | 486 kts | 305° |
| 2026-05-08 06:01 | 43.28596 | -132.26053 | 38000 ft | 486 kts | 305° |
| 2026-05-08 06:02 | 43.32666 | -132.33498 | 38000 ft | 486 kts | 305° |
| 2026-05-08 06:02 | 43.36722 | -132.40938 | 38000 ft | 486 kts | 305° |
| 2026-05-08 06:03 | 43.40779 | -132.48398 | 38000 ft | 486 kts | 305° |
| 2026-05-08 06:03 | 43.44822 | -132.55852 | 38000 ft | 486 kts | 305° |
| 2026-05-08 06:04 | 43.48864 | -132.63323 | 38000 ft | 486 kts | 305° |
| 2026-05-08 06:04 | 43.52902 | -132.70805 | 38000 ft | 486 kts | 305° |
| 2026-05-08 06:05 | 43.56923 | -132.78275 | 38000 ft | 486 kts | 305° |
| 2026-05-08 06:05 | 43.60959 | -132.85791 | 38000 ft | 486 kts | 304° |
| 2026-05-08 06:06 | 43.64324 | -132.92073 | 38000 ft | 486 kts | 304° |
| 2026-05-08 06:06 | 43.68339 | -132.99586 | 38000 ft | 486 kts | 304° |
| 2026-05-08 06:07 | 43.72345 | -133.07101 | 38000 ft | 486 kts | 304° |
| 2026-05-08 06:07 | 43.76364 | -133.14661 | 38000 ft | 486 kts | 304° |
| 2026-05-08 06:08 | 43.80354 | -133.22185 | 38000 ft | 486 kts | 304° |
| 2026-05-08 06:08 | 43.84363 | -133.29764 | 38000 ft | 486 kts | 304° |
| 2026-05-08 06:09 | 43.88342 | -133.37306 | 38000 ft | 486 kts | 304° |
| 2026-05-08 06:09 | 43.92354 | -133.44931 | 38000 ft | 486 kts | 304° |
| 2026-05-08 06:10 | 43.96324 | -133.52495 | 38000 ft | 486 kts | 304° |
| 2026-05-08 06:10 | 44.00291 | -133.60073 | 38000 ft | 486 kts | 304° |
| 2026-05-08 06:11 | 44.04282 | -133.67716 | 38000 ft | 486 kts | 304° |
| 2026-05-08 06:11 | 44.08243 | -133.75324 | 38000 ft | 486 kts | 304° |
| 2026-05-08 06:12 | 44.12191 | -133.82925 | 38000 ft | 486 kts | 304° |
| 2026-05-08 06:12 | 44.16167 | -133.90600 | 38000 ft | 486 kts | 304° |
| 2026-05-08 06:13 | 44.20095 | -133.98202 | 38000 ft | 486 kts | 304° |
| 2026-05-08 06:13 | 44.24044 | -134.05867 | 38000 ft | 486 kts | 304° |
| 2026-05-08 06:14 | 44.27996 | -134.13555 | 38000 ft | 486 kts | 304° |
| 2026-05-08 06:14 | 44.31926 | -134.21223 | 38000 ft | 486 kts | 304° |
| 2026-05-08 06:15 | 44.35867 | -134.28930 | 38000 ft | 486 kts | 304° |
| 2026-05-08 06:15 | 44.39788 | -134.36621 | 38000 ft | 486 kts | 304° |
| 2026-05-08 06:16 | 44.43728 | -134.44369 | 38000 ft | 486 kts | 303° |
| 2026-05-08 06:16 | 44.47627 | -134.52056 | 38000 ft | 486 kts | 303° |
| 2026-05-08 06:17 | 44.53499 | -134.63673 | 38000 ft | 486 kts | 303° |
| 2026-05-08 06:17 | 44.57400 | -134.71418 | 38000 ft | 486 kts | 303° |
| 2026-05-08 06:18 | 44.61299 | -134.79178 | 38000 ft | 486 kts | 303° |
| 2026-05-08 06:18 | 44.65200 | -134.86963 | 38000 ft | 486 kts | 303° |
| 2026-05-08 06:19 | 44.69091 | -134.94749 | 38000 ft | 486 kts | 303° |
| 2026-05-08 06:19 | 44.72970 | -135.02533 | 38000 ft | 486 kts | 303° |
| 2026-05-08 06:20 | 44.76831 | -135.10301 | 38000 ft | 487 kts | 303° |
| 2026-05-08 06:20 | 44.80703 | -135.18111 | 38000 ft | 487 kts | 303° |
| 2026-05-08 06:21 | 44.84592 | -135.25979 | 38000 ft | 487 kts | 303° |
| 2026-05-08 06:21 | 44.88442 | -135.33789 | 38000 ft | 487 kts | 303° |
| 2026-05-08 06:22 | 44.92305 | -135.41646 | 38000 ft | 487 kts | 303° |
| 2026-05-08 06:22 | 44.96175 | -135.49540 | 38000 ft | 487 kts | 303° |
| 2026-05-08 06:23 | 45.00018 | -135.57397 | 38000 ft | 487 kts | 303° |
| 2026-05-08 06:23 | 45.03875 | -135.65307 | 38000 ft | 487 kts | 303° |
| 2026-05-08 06:24 | 45.07701 | -135.73175 | 38000 ft | 486 kts | 303° |
| 2026-05-08 06:24 | 45.11538 | -135.81087 | 38000 ft | 486 kts | 303° |
| 2026-05-08 06:25 | 45.15353 | -135.88977 | 38000 ft | 486 kts | 303° |
| 2026-05-08 06:25 | 45.19177 | -135.96907 | 38000 ft | 486 kts | 303° |
| 2026-05-08 06:26 | 45.22979 | -136.04812 | 38000 ft | 486 kts | 302° |
| 2026-05-08 06:26 | 45.26781 | -136.12740 | 38000 ft | 486 kts | 302° |
| 2026-05-08 06:27 | 45.30568 | -136.20660 | 38000 ft | 486 kts | 302° |
| 2026-05-08 06:27 | 45.34380 | -136.28652 | 38000 ft | 486 kts | 302° |
| 2026-05-08 06:28 | 45.38152 | -136.36584 | 38000 ft | 486 kts | 302° |
| 2026-05-08 06:28 | 45.41936 | -136.44562 | 38000 ft | 486 kts | 302° |
| 2026-05-08 06:29 | 45.45717 | -136.52559 | 38000 ft | 486 kts | 302° |
| 2026-05-08 06:29 | 45.49481 | -136.60539 | 38000 ft | 486 kts | 302° |
| 2026-05-08 06:30 | 45.53248 | -136.68551 | 38000 ft | 486 kts | 302° |
| 2026-05-08 06:30 | 45.57016 | -136.76586 | 38000 ft | 486 kts | 302° |
| 2026-05-08 06:31 | 45.60749 | -136.84568 | 38000 ft | 486 kts | 302° |
| 2026-05-08 06:31 | 45.64494 | -136.92599 | 38000 ft | 486 kts | 302° |
| 2026-05-08 06:32 | 45.68238 | -137.00652 | 38000 ft | 486 kts | 302° |
| 2026-05-08 06:32 | 45.71989 | -137.08742 | 38000 ft | 486 kts | 302° |
| 2026-05-08 06:33 | 45.75703 | -137.16776 | 38000 ft | 486 kts | 302° |
| 2026-05-08 06:33 | 45.79446 | -137.24897 | 38000 ft | 486 kts | 302° |
| 2026-05-08 06:34 | 45.83155 | -137.32964 | 38000 ft | 486 kts | 302° |
| 2026-05-08 06:34 | 45.86873 | -137.41077 | 38000 ft | 486 kts | 302° |
| 2026-05-08 06:35 | 45.90568 | -137.49162 | 38000 ft | 485 kts | 302° |
| 2026-05-08 06:35 | 45.93660 | -137.55945 | 38000 ft | 485 kts | 301° |
| 2026-05-08 06:36 | 45.97960 | -137.65405 | 38000 ft | 485 kts | 301° |
| 2026-05-08 06:36 | 46.01031 | -137.72183 | 38000 ft | 485 kts | 301° |
| 2026-05-08 06:37 | 46.04721 | -137.80346 | 38000 ft | 485 kts | 301° |
| 2026-05-08 06:37 | 46.08388 | -137.88485 | 38000 ft | 485 kts | 301° |
| 2026-05-08 06:38 | 46.12061 | -137.96657 | 38000 ft | 485 kts | 301° |
| 2026-05-08 06:38 | 46.15737 | -138.04862 | 38000 ft | 485 kts | 301° |
| 2026-05-08 06:39 | 46.19394 | -138.13048 | 38000 ft | 485 kts | 301° |
| 2026-05-08 06:39 | 46.23038 | -138.21229 | 38000 ft | 485 kts | 301° |
| 2026-05-08 06:40 | 46.26699 | -138.29472 | 38000 ft | 485 kts | 301° |
| 2026-05-08 06:40 | 46.30325 | -138.37662 | 38000 ft | 485 kts | 301° |
| 2026-05-08 06:41 | 46.33961 | -138.45898 | 38000 ft | 485 kts | 301° |
| 2026-05-08 06:41 | 46.37602 | -138.54168 | 38000 ft | 485 kts | 301° |
| 2026-05-08 06:42 | 46.41230 | -138.62435 | 38000 ft | 485 kts | 301° |
| 2026-05-08 06:42 | 46.44836 | -138.70676 | 38000 ft | 485 kts | 301° |
| 2026-05-08 06:43 | 46.48456 | -138.78973 | 38000 ft | 485 kts | 301° |
| 2026-05-08 06:43 | 46.52061 | -138.87261 | 38000 ft | 485 kts | 301° |
| 2026-05-08 06:44 | 46.55644 | -138.95525 | 38000 ft | 485 kts | 301° |
| 2026-05-08 06:44 | 46.59247 | -139.03858 | 38000 ft | 485 kts | 301° |
| 2026-05-08 06:45 | 46.62829 | -139.12168 | 38000 ft | 485 kts | 300° |
| 2026-05-08 06:45 | 46.66420 | -139.20523 | 38000 ft | 485 kts | 300° |
| 2026-05-08 06:46 | 46.69983 | -139.28841 | 38000 ft | 485 kts | 300° |
| 2026-05-08 06:46 | 46.73560 | -139.37215 | 38000 ft | 485 kts | 300° |
| 2026-05-08 06:47 | 46.77113 | -139.45561 | 38000 ft | 485 kts | 300° |
| 2026-05-08 06:47 | 46.80677 | -139.53956 | 38000 ft | 485 kts | 300° |
| 2026-05-08 06:48 | 46.84214 | -139.62316 | 38000 ft | 485 kts | 300° |
| 2026-05-08 06:48 | 46.87756 | -139.70713 | 38000 ft | 485 kts | 300° |
| 2026-05-08 06:49 | 46.91302 | -139.79149 | 38000 ft | 485 kts | 300° |
| 2026-05-08 06:49 | 46.94833 | -139.87578 | 38000 ft | 485 kts | 300° |
| 2026-05-08 06:50 | 46.98317 | -139.95973 | 37999 ft | 485 kts | 298° |
| 2026-05-08 06:50 | 47.01296 | -140.04851 | 38001 ft | 484 kts | 292° |
| 2026-05-08 06:51 | 47.03816 | -140.13965 | 38000 ft | 483 kts | 290° |
| 2026-05-08 06:51 | 47.06163 | -140.23216 | 38000 ft | 483 kts | 289° |
| 2026-05-08 06:52 | 47.08444 | -140.32511 | 38000 ft | 483 kts | 289° |
| 2026-05-08 06:52 | 47.10692 | -140.41775 | 38000 ft | 483 kts | 288° |
| 2026-05-08 06:53 | 47.12947 | -140.51084 | 38000 ft | 483 kts | 288° |
| 2026-05-08 06:53 | 47.15191 | -140.60351 | 38000 ft | 483 kts | 288° |
| 2026-05-08 06:54 | 47.17442 | -140.69649 | 38000 ft | 483 kts | 288° |
| 2026-05-08 06:54 | 47.19698 | -140.78969 | 38000 ft | 483 kts | 288° |
| 2026-05-08 06:55 | 47.21947 | -140.88272 | 38000 ft | 483 kts | 288° |
| 2026-05-08 06:55 | 47.24199 | -140.97614 | 38000 ft | 483 kts | 288° |
| 2026-05-08 06:56 | 47.26448 | -141.06966 | 38000 ft | 483 kts | 288° |
| 2026-05-08 06:56 | 47.28677 | -141.16264 | 38000 ft | 483 kts | 288° |
| 2026-05-08 06:57 | 47.30909 | -141.25605 | 38000 ft | 483 kts | 288° |
| 2026-05-08 06:57 | 47.33138 | -141.34972 | 38000 ft | 483 kts | 288° |
| 2026-05-08 06:58 | 47.35357 | -141.44334 | 38000 ft | 483 kts | 288° |
| 2026-05-08 06:58 | 47.37562 | -141.53670 | 38000 ft | 483 kts | 288° |
| 2026-05-08 06:59 | 47.39763 | -141.63031 | 38000 ft | 483 kts | 288° |
| 2026-05-08 06:59 | 47.41966 | -141.72439 | 38000 ft | 483 kts | 288° |
| 2026-05-08 07:00 | 47.44150 | -141.81805 | 38000 ft | 483 kts | 288° |
| 2026-05-08 07:00 | 47.46328 | -141.91189 | 38000 ft | 483 kts | 288° |
| 2026-05-08 07:01 | 47.48511 | -142.00630 | 38000 ft | 483 kts | 288° |
| 2026-05-08 07:01 | 47.50671 | -142.10014 | 38000 ft | 483 kts | 288° |
| 2026-05-08 07:02 | 47.52824 | -142.19412 | 38000 ft | 483 kts | 288° |
| 2026-05-08 07:02 | 47.54976 | -142.28843 | 38000 ft | 483 kts | 288° |
| 2026-05-08 07:03 | 47.57116 | -142.38266 | 38000 ft | 483 kts | 288° |
| 2026-05-08 07:03 | 47.59245 | -142.47676 | 38000 ft | 483 kts | 288° |